sensor_id;sensor_type;location;lat;lon;timestamp;P1;durP1;ratioP1;P2;durP2;ratioP2
69203;SDS011;56317;27.658;85.326;2023-09-19T00:00:45;18.83;;;8.57;;
69203;SDS011;56317;27.658;85.326;2023-09-19T00:03:14;18.73;;;8.00;;
69203;SDS011;56317;27.658;85.326;2023-09-19T00:05:42;16.30;;;8.30;;
69203;SDS011;56317;27.658;85.326;2023-09-19T00:08:09;17.75;;;7.93;;
69203;SDS011;56317;27.658;85.326;2023-09-19T00:10:39;16.30;;;7.57;;
69203;SDS011;56317;27.658;85.326;2023-09-19T00:13:06;15.65;;;8.23;;
69203;SDS011;56317;27.658;85.326;2023-09-19T00:15:44;23.10;;;9.25;;
69203;SDS011;56317;27.658;85.326;2023-09-19T00:18:16;18.98;;;8.93;;
69203;SDS011;56317;27.658;85.326;2023-09-19T00:20:46;15.20;;;8.23;;
69203;SDS011;56317;27.658;85.326;2023-09-19T00:23:14;15.07;;;7.68;;
69203;SDS011;56317;27.658;85.326;2023-09-19T00:25:42;14.32;;;7.57;;
69203;SDS011;56317;27.658;85.326;2023-09-19T00:28:09;24.48;;;9.10;;
69203;SDS011;56317;27.658;85.326;2023-09-19T00:30:36;19.63;;;9.00;;
69203;SDS011;56317;27.658;85.326;2023-09-19T00:33:06;16.85;;;7.93;;
69203;SDS011;56317;27.658;85.326;2023-09-19T00:35:33;19.13;;;10.15;;
69203;SDS011;56317;27.658;85.326;2023-09-19T00:38:02;17.75;;;10.32;;
69203;SDS011;56317;27.658;85.326;2023-09-19T00:40:29;24.92;;;11.38;;
69203;SDS011;56317;27.658;85.326;2023-09-19T00:42:58;22.35;;;12.07;;
69203;SDS011;56317;27.658;85.326;2023-09-19T00:45:29;26.13;;;12.83;;
69203;SDS011;56317;27.658;85.326;2023-09-19T00:47:56;20.30;;;11.23;;
69203;SDS011;56317;27.658;85.326;2023-09-19T00:50:29;22.33;;;11.20;;
69203;SDS011;56317;27.658;85.326;2023-09-19T00:52:57;26.35;;;11.93;;
69203;SDS011;56317;27.658;85.326;2023-09-19T00:55:25;23.58;;;12.10;;
69203;SDS011;56317;27.658;85.326;2023-09-19T00:57:53;18.77;;;10.63;;
69203;SDS011;56317;27.658;85.326;2023-09-19T01:00:22;25.05;;;11.85;;
69203;SDS011;56317;27.658;85.326;2023-09-19T01:02:50;18.77;;;10.95;;
69203;SDS011;56317;27.658;85.326;2023-09-19T01:05:17;21.90;;;11.07;;
69203;SDS011;56317;27.658;85.326;2023-09-19T01:07:45;24.67;;;10.88;;
69203;SDS011;56317;27.658;85.326;2023-09-19T01:10:14;20.52;;;9.73;;
69203;SDS011;56317;27.658;85.326;2023-09-19T01:12:48;23.27;;;10.00;;
69203;SDS011;56317;27.658;85.326;2023-09-19T01:21:08;20.90;;;10.68;;
69203;SDS011;56317;27.658;85.326;2023-09-19T01:32:02;15.80;;;8.90;;
69203;SDS011;56317;27.658;85.326;2023-09-19T01:37:19;19.08;;;9.98;;
69203;SDS011;56317;27.658;85.326;2023-09-19T01:39:58;19.90;;;10.43;;
69203;SDS011;56317;27.658;85.326;2023-09-19T01:51:20;21.65;;;12.90;;
69203;SDS011;56317;27.658;85.326;2023-09-19T01:54:09;23.92;;;13.32;;
69203;SDS011;56317;27.658;85.326;2023-09-19T01:56:45;25.92;;;12.60;;
69203;SDS011;56317;27.658;85.326;2023-09-19T01:59:25;23.83;;;12.95;;
69203;SDS011;56317;27.658;85.326;2023-09-19T02:01:59;25.15;;;13.40;;
69203;SDS011;56317;27.658;85.326;2023-09-19T02:04:29;22.75;;;13.07;;
69203;SDS011;56317;27.658;85.326;2023-09-19T02:06:59;24.33;;;12.75;;
69203;SDS011;56317;27.658;85.326;2023-09-19T02:09:26;21.92;;;12.68;;
69203;SDS011;56317;27.658;85.326;2023-09-19T02:11:53;24.02;;;13.02;;
69203;SDS011;56317;27.658;85.326;2023-09-19T02:14:21;27.27;;;13.23;;
69203;SDS011;56317;27.658;85.326;2023-09-19T02:16:48;24.88;;;12.85;;
69203;SDS011;56317;27.658;85.326;2023-09-19T02:19:16;25.42;;;13.18;;
69203;SDS011;56317;27.658;85.326;2023-09-19T02:21:43;23.38;;;13.68;;
69203;SDS011;56317;27.658;85.326;2023-09-19T02:24:10;22.52;;;13.73;;
69203;SDS011;56317;27.658;85.326;2023-09-19T02:26:38;23.33;;;12.38;;
69203;SDS011;56317;27.658;85.326;2023-09-19T02:29:05;19.65;;;12.30;;
69203;SDS011;56317;27.658;85.326;2023-09-19T02:31:32;21.35;;;12.02;;
69203;SDS011;56317;27.658;85.326;2023-09-19T02:33:59;18.75;;;10.68;;
69203;SDS011;56317;27.658;85.326;2023-09-19T02:36:26;20.83;;;12.05;;
69203;SDS011;56317;27.658;85.326;2023-09-19T02:38:56;19.15;;;11.35;;
69203;SDS011;56317;27.658;85.326;2023-09-19T02:41:23;20.40;;;11.32;;
69203;SDS011;56317;27.658;85.326;2023-09-19T02:43:50;17.20;;;11.07;;
69203;SDS011;56317;27.658;85.326;2023-09-19T02:46:17;18.73;;;10.65;;
69203;SDS011;56317;27.658;85.326;2023-09-19T02:48:44;19.73;;;11.57;;
69203;SDS011;56317;27.658;85.326;2023-09-19T02:51:12;18.63;;;10.68;;
69203;SDS011;56317;27.658;85.326;2023-09-19T02:53:39;17.25;;;9.57;;
69203;SDS011;56317;27.658;85.326;2023-09-19T02:56:07;17.27;;;9.75;;
69203;SDS011;56317;27.658;85.326;2023-09-19T02:58:37;19.25;;;10.50;;
69203;SDS011;56317;27.658;85.326;2023-09-19T03:01:08;18.70;;;10.70;;
69203;SDS011;56317;27.658;85.326;2023-09-19T03:03:38;21.60;;;10.45;;
69203;SDS011;56317;27.658;85.326;2023-09-19T03:06:06;19.17;;;10.98;;
69203;SDS011;56317;27.658;85.326;2023-09-19T03:08:34;15.68;;;9.32;;
69203;SDS011;56317;27.658;85.326;2023-09-19T03:11:05;18.10;;;9.33;;
69203;SDS011;56317;27.658;85.326;2023-09-19T03:13:35;16.63;;;9.80;;
69203;SDS011;56317;27.658;85.326;2023-09-19T03:16:05;16.70;;;8.83;;
69203;SDS011;56317;27.658;85.326;2023-09-19T03:18:35;17.40;;;9.00;;
69203;SDS011;56317;27.658;85.326;2023-09-19T03:21:02;20.27;;;8.75;;
69203;SDS011;56317;27.658;85.326;2023-09-19T03:23:29;18.17;;;10.05;;
69203;SDS011;56317;27.658;85.326;2023-09-19T03:25:57;17.08;;;9.23;;
69203;SDS011;56317;27.658;85.326;2023-09-19T03:28:24;17.65;;;8.75;;
69203;SDS011;56317;27.658;85.326;2023-09-19T03:31:04;15.90;;;7.93;;
69203;SDS011;56317;27.658;85.326;2023-09-19T03:33:33;13.90;;;8.50;;
69203;SDS011;56317;27.658;85.326;2023-09-19T03:36:03;13.55;;;7.63;;
69203;SDS011;56317;27.658;85.326;2023-09-19T03:38:31;14.20;;;7.68;;
69203;SDS011;56317;27.658;85.326;2023-09-19T03:41:00;14.13;;;7.10;;
69203;SDS011;56317;27.658;85.326;2023-09-19T03:43:28;15.27;;;7.55;;
69203;SDS011;56317;27.658;85.326;2023-09-19T03:45:55;14.15;;;7.68;;
69203;SDS011;56317;27.658;85.326;2023-09-19T03:48:23;16.63;;;7.28;;
69203;SDS011;56317;27.658;85.326;2023-09-19T03:50:50;10.88;;;6.80;;
69203;SDS011;56317;27.658;85.326;2023-09-19T03:53:18;13.85;;;7.05;;
69203;SDS011;56317;27.658;85.326;2023-09-19T03:55:45;13.18;;;7.55;;
69203;SDS011;56317;27.658;85.326;2023-09-19T03:58:12;17.98;;;8.05;;
69203;SDS011;56317;27.658;85.326;2023-09-19T04:00:39;13.32;;;7.40;;
69203;SDS011;56317;27.658;85.326;2023-09-19T04:03:07;11.80;;;6.30;;
69203;SDS011;56317;27.658;85.326;2023-09-19T04:05:36;11.90;;;6.78;;
69203;SDS011;56317;27.658;85.326;2023-09-19T04:08:03;13.70;;;6.70;;
69203;SDS011;56317;27.658;85.326;2023-09-19T04:10:31;13.18;;;6.68;;
69203;SDS011;56317;27.658;85.326;2023-09-19T04:12:58;11.57;;;6.78;;
69203;SDS011;56317;27.658;85.326;2023-09-19T04:15:25;9.90;;;6.03;;
69203;SDS011;56317;27.658;85.326;2023-09-19T04:17:52;12.52;;;6.10;;
69203;SDS011;56317;27.658;85.326;2023-09-19T04:20:20;8.77;;;5.63;;
69203;SDS011;56317;27.658;85.326;2023-09-19T04:22:50;13.10;;;6.38;;
69203;SDS011;56317;27.658;85.326;2023-09-19T04:25:18;11.43;;;6.45;;
69203;SDS011;56317;27.658;85.326;2023-09-19T04:27:46;11.00;;;6.50;;
69203;SDS011;56317;27.658;85.326;2023-09-19T04:30:13;12.13;;;6.43;;
69203;SDS011;56317;27.658;85.326;2023-09-19T04:35:17;13.30;;;4.93;;
69203;SDS011;56317;27.658;85.326;2023-09-19T04:37:44;10.55;;;6.07;;
69203;SDS011;56317;27.658;85.326;2023-09-19T04:40:12;11.20;;;5.63;;
69203;SDS011;56317;27.658;85.326;2023-09-19T04:42:43;9.93;;;5.57;;
69203;SDS011;56317;27.658;85.326;2023-09-19T04:45:11;10.25;;;4.93;;
69203;SDS011;56317;27.658;85.326;2023-09-19T04:47:38;9.07;;;4.90;;
69203;SDS011;56317;27.658;85.326;2023-09-19T04:50:06;10.05;;;5.90;;
69203;SDS011;56317;27.658;85.326;2023-09-19T04:52:39;9.65;;;5.57;;
69203;SDS011;56317;27.658;85.326;2023-09-19T04:55:13;9.95;;;5.57;;
69203;SDS011;56317;27.658;85.326;2023-09-19T04:57:59;9.43;;;4.97;;
69203;SDS011;56317;27.658;85.326;2023-09-19T05:00:26;14.98;;;6.50;;
69203;SDS011;56317;27.658;85.326;2023-09-19T05:02:56;10.57;;;4.95;;
69203;SDS011;56317;27.658;85.326;2023-09-19T05:05:25;10.05;;;5.15;;
69203;SDS011;56317;27.658;85.326;2023-09-19T05:07:52;13.80;;;4.97;;
69203;SDS011;56317;27.658;85.326;2023-09-19T05:10:19;11.35;;;6.05;;
69203;SDS011;56317;27.658;85.326;2023-09-19T05:12:48;9.60;;;5.65;;
69203;SDS011;56317;27.658;85.326;2023-09-19T05:15:20;9.05;;;4.97;;
69203;SDS011;56317;27.658;85.326;2023-09-19T05:17:48;9.35;;;5.35;;
69203;SDS011;56317;27.658;85.326;2023-09-19T05:20:20;10.68;;;4.90;;
69203;SDS011;56317;27.658;85.326;2023-09-19T05:23:06;9.77;;;4.53;;
69203;SDS011;56317;27.658;85.326;2023-09-19T05:25:39;10.05;;;5.32;;
69203;SDS011;56317;27.658;85.326;2023-09-19T05:28:09;9.73;;;4.60;;
69203;SDS011;56317;27.658;85.326;2023-09-19T05:30:41;12.80;;;6.90;;
69203;SDS011;56317;27.658;85.326;2023-09-19T05:33:08;9.13;;;4.47;;
69203;SDS011;56317;27.658;85.326;2023-09-19T05:35:36;7.45;;;4.55;;
69203;SDS011;56317;27.658;85.326;2023-09-19T05:38:05;9.05;;;4.40;;
69203;SDS011;56317;27.658;85.326;2023-09-19T05:40:34;7.18;;;4.10;;
69203;SDS011;56317;27.658;85.326;2023-09-19T05:43:04;9.47;;;4.77;;
69203;SDS011;56317;27.658;85.326;2023-09-19T05:45:31;9.18;;;5.22;;
69203;SDS011;56317;27.658;85.326;2023-09-19T05:48:07;13.15;;;4.18;;
69203;SDS011;56317;27.658;85.326;2023-09-19T05:50:42;6.63;;;4.25;;
69203;SDS011;56317;27.658;85.326;2023-09-19T05:53:13;8.38;;;4.22;;
69203;SDS011;56317;27.658;85.326;2023-09-19T05:55:40;6.15;;;3.97;;
69203;SDS011;56317;27.658;85.326;2023-09-19T05:58:08;6.93;;;3.38;;
69203;SDS011;56317;27.658;85.326;2023-09-19T06:00:35;5.70;;;3.30;;
69203;SDS011;56317;27.658;85.326;2023-09-19T06:03:04;6.78;;;3.80;;
69203;SDS011;56317;27.658;85.326;2023-09-19T06:05:31;6.05;;;3.50;;
69203;SDS011;56317;27.658;85.326;2023-09-19T06:07:58;8.93;;;3.97;;
69203;SDS011;56317;27.658;85.326;2023-09-19T06:10:26;6.80;;;4.20;;
69203;SDS011;56317;27.658;85.326;2023-09-19T06:12:53;5.50;;;3.03;;
69203;SDS011;56317;27.658;85.326;2023-09-19T06:15:23;8.40;;;4.20;;
69203;SDS011;56317;27.658;85.326;2023-09-19T06:17:54;5.80;;;3.55;;
69203;SDS011;56317;27.658;85.326;2023-09-19T06:20:23;7.80;;;3.30;;
69203;SDS011;56317;27.658;85.326;2023-09-19T06:22:54;5.05;;;3.25;;
69203;SDS011;56317;27.658;85.326;2023-09-19T06:25:21;5.45;;;3.13;;
69203;SDS011;56317;27.658;85.326;2023-09-19T06:27:48;5.85;;;3.13;;
69203;SDS011;56317;27.658;85.326;2023-09-19T06:30:21;6.35;;;3.20;;
69203;SDS011;56317;27.658;85.326;2023-09-19T06:32:54;6.43;;;3.33;;
69203;SDS011;56317;27.658;85.326;2023-09-19T06:35:22;5.93;;;3.05;;
69203;SDS011;56317;27.658;85.326;2023-09-19T06:37:51;6.13;;;3.10;;
69203;SDS011;56317;27.658;85.326;2023-09-19T06:40:19;4.88;;;2.63;;
69203;SDS011;56317;27.658;85.326;2023-09-19T06:42:47;6.45;;;3.10;;
69203;SDS011;56317;27.658;85.326;2023-09-19T06:45:17;4.80;;;2.63;;
69203;SDS011;56317;27.658;85.326;2023-09-19T06:47:45;6.07;;;3.20;;
69203;SDS011;56317;27.658;85.326;2023-09-19T06:50:19;9.25;;;3.63;;
69203;SDS011;56317;27.658;85.326;2023-09-19T06:52:51;5.57;;;2.78;;
69203;SDS011;56317;27.658;85.326;2023-09-19T06:55:20;6.68;;;3.20;;
69203;SDS011;56317;27.658;85.326;2023-09-19T06:57:56;6.07;;;3.50;;
69203;SDS011;56317;27.658;85.326;2023-09-19T07:00:24;6.97;;;4.32;;
69203;SDS011;56317;27.658;85.326;2023-09-19T07:03:01;5.28;;;3.38;;
69203;SDS011;56317;27.658;85.326;2023-09-19T07:05:32;8.07;;;3.55;;
69203;SDS011;56317;27.658;85.326;2023-09-19T07:08:10;9.98;;;4.00;;
69203;SDS011;56317;27.658;85.326;2023-09-19T07:10:38;6.80;;;3.83;;
69203;SDS011;56317;27.658;85.326;2023-09-19T07:13:07;9.23;;;3.95;;
69203;SDS011;56317;27.658;85.326;2023-09-19T07:15:36;6.10;;;3.85;;
69203;SDS011;56317;27.658;85.326;2023-09-19T07:18:05;5.20;;;3.50;;
69203;SDS011;56317;27.658;85.326;2023-09-19T07:20:36;11.90;;;4.30;;
69203;SDS011;56317;27.658;85.326;2023-09-19T07:23:04;9.95;;;3.83;;
69203;SDS011;56317;27.658;85.326;2023-09-19T07:25:31;10.43;;;5.10;;
69203;SDS011;56317;27.658;85.326;2023-09-19T07:27:58;7.78;;;4.43;;
69203;SDS011;56317;27.658;85.326;2023-09-19T07:30:26;8.35;;;4.90;;
69203;SDS011;56317;27.658;85.326;2023-09-19T07:32:54;7.57;;;4.15;;
69203;SDS011;56317;27.658;85.326;2023-09-19T07:35:22;8.80;;;4.68;;
69203;SDS011;56317;27.658;85.326;2023-09-19T07:37:49;7.47;;;4.72;;
69203;SDS011;56317;27.658;85.326;2023-09-19T07:40:17;9.00;;;5.70;;
69203;SDS011;56317;27.658;85.326;2023-09-19T07:42:46;12.75;;;6.55;;
69203;SDS011;56317;27.658;85.326;2023-09-19T07:45:13;12.85;;;6.25;;
69203;SDS011;56317;27.658;85.326;2023-09-19T07:47:44;10.35;;;6.30;;
69203;SDS011;56317;27.658;85.326;2023-09-19T07:50:13;12.70;;;5.90;;
69203;SDS011;56317;27.658;85.326;2023-09-19T07:52:41;10.07;;;5.90;;
69203;SDS011;56317;27.658;85.326;2023-09-19T07:55:09;13.27;;;5.85;;
69203;SDS011;56317;27.658;85.326;2023-09-19T07:57:42;15.68;;;6.03;;
69203;SDS011;56317;27.658;85.326;2023-09-19T08:00:10;12.68;;;5.95;;
69203;SDS011;56317;27.658;85.326;2023-09-19T08:02:37;15.73;;;6.80;;
69203;SDS011;56317;27.658;85.326;2023-09-19T08:07:36;16.17;;;6.53;;
69203;SDS011;56317;27.658;85.326;2023-09-19T08:10:04;14.50;;;6.93;;
69203;SDS011;56317;27.658;85.326;2023-09-19T08:12:39;11.10;;;6.78;;
69203;SDS011;56317;27.658;85.326;2023-09-19T08:15:14;11.73;;;6.45;;
69203;SDS011;56317;27.658;85.326;2023-09-19T08:17:42;13.52;;;7.07;;
69203;SDS011;56317;27.658;85.326;2023-09-19T08:20:10;13.70;;;7.45;;
69203;SDS011;56317;27.658;85.326;2023-09-19T08:22:47;12.60;;;6.43;;
69203;SDS011;56317;27.658;85.326;2023-09-19T08:25:15;11.82;;;6.38;;
69203;SDS011;56317;27.658;85.326;2023-09-19T08:27:45;19.13;;;8.07;;
69203;SDS011;56317;27.658;85.326;2023-09-19T08:30:15;16.38;;;8.35;;
69203;SDS011;56317;27.658;85.326;2023-09-19T08:32:58;14.52;;;7.38;;
69203;SDS011;56317;27.658;85.326;2023-09-19T08:35:26;18.73;;;6.03;;
69203;SDS011;56317;27.658;85.326;2023-09-19T08:37:54;12.77;;;6.50;;
69203;SDS011;56317;27.658;85.326;2023-09-19T08:40:21;13.05;;;5.85;;
69203;SDS011;56317;27.658;85.326;2023-09-19T08:45:17;16.50;;;7.22;;
69203;SDS011;56317;27.658;85.326;2023-09-19T08:50:47;14.02;;;6.90;;
69203;SDS011;56317;27.658;85.326;2023-09-19T08:56:20;11.00;;;6.43;;
69203;SDS011;56317;27.658;85.326;2023-09-19T08:58:57;11.45;;;7.25;;
69203;SDS011;56317;27.658;85.326;2023-09-19T09:01:36;12.70;;;7.80;;
69203;SDS011;56317;27.658;85.326;2023-09-19T09:04:09;11.57;;;5.82;;
69203;SDS011;56317;27.658;85.326;2023-09-19T09:06:38;13.20;;;6.40;;
69203;SDS011;56317;27.658;85.326;2023-09-19T09:09:06;14.35;;;6.80;;
69203;SDS011;56317;27.658;85.326;2023-09-19T09:11:34;14.82;;;6.18;;
69203;SDS011;56317;27.658;85.326;2023-09-19T09:14:05;9.65;;;5.43;;
69203;SDS011;56317;27.658;85.326;2023-09-19T09:16:34;12.88;;;6.43;;
69203;SDS011;56317;27.658;85.326;2023-09-19T09:19:01;11.80;;;5.78;;
69203;SDS011;56317;27.658;85.326;2023-09-19T09:21:29;10.85;;;7.00;;
69203;SDS011;56317;27.658;85.326;2023-09-19T09:26:59;22.13;;;9.98;;
69203;SDS011;56317;27.658;85.326;2023-09-19T09:29:42;15.75;;;8.80;;
69203;SDS011;56317;27.658;85.326;2023-09-19T09:32:25;14.77;;;8.02;;
69203;SDS011;56317;27.658;85.326;2023-09-19T09:35:00;12.18;;;7.35;;
69203;SDS011;56317;27.658;85.326;2023-09-19T09:37:30;17.77;;;7.80;;
69203;SDS011;56317;27.658;85.326;2023-09-19T09:40:00;12.93;;;7.20;;
69203;SDS011;56317;27.658;85.326;2023-09-19T09:42:40;15.43;;;7.57;;
69203;SDS011;56317;27.658;85.326;2023-09-19T09:45:21;16.27;;;7.65;;
69203;SDS011;56317;27.658;85.326;2023-09-19T09:47:59;13.80;;;7.55;;
69203;SDS011;56317;27.658;85.326;2023-09-19T09:50:33;16.75;;;7.68;;
69203;SDS011;56317;27.658;85.326;2023-09-19T09:53:25;14.68;;;7.93;;
69203;SDS011;56317;27.658;85.326;2023-09-19T09:56:06;13.50;;;7.30;;
69203;SDS011;56317;27.658;85.326;2023-09-19T10:01:21;11.95;;;6.63;;
69203;SDS011;56317;27.658;85.326;2023-09-19T10:04:00;14.45;;;7.13;;
69203;SDS011;56317;27.658;85.326;2023-09-19T10:06:39;13.23;;;6.68;;
69203;SDS011;56317;27.658;85.326;2023-09-19T10:09:13;12.40;;;6.95;;
69203;SDS011;56317;27.658;85.326;2023-09-19T10:11:43;10.20;;;5.53;;
69203;SDS011;56317;27.658;85.326;2023-09-19T10:14:16;12.20;;;7.03;;
69203;SDS011;56317;27.658;85.326;2023-09-19T10:16:52;11.95;;;6.68;;
69203;SDS011;56317;27.658;85.326;2023-09-19T10:22:23;16.33;;;7.07;;
69203;SDS011;56317;27.658;85.326;2023-09-19T10:24:53;16.08;;;7.28;;
69203;SDS011;56317;27.658;85.326;2023-09-19T10:27:21;21.70;;;8.40;;
69203;SDS011;56317;27.658;85.326;2023-09-19T10:29:49;14.30;;;6.80;;
69203;SDS011;56317;27.658;85.326;2023-09-19T10:32:17;13.57;;;7.90;;
69203;SDS011;56317;27.658;85.326;2023-09-19T10:34:48;15.27;;;7.72;;
69203;SDS011;56317;27.658;85.326;2023-09-19T10:37:21;14.60;;;7.80;;
69203;SDS011;56317;27.658;85.326;2023-09-19T10:39:51;13.60;;;7.43;;
69203;SDS011;56317;27.658;85.326;2023-09-19T10:42:21;13.05;;;6.85;;
69203;SDS011;56317;27.658;85.326;2023-09-19T10:44:54;16.45;;;8.15;;
69203;SDS011;56317;27.658;85.326;2023-09-19T10:49:52;18.02;;;6.75;;
69203;SDS011;56317;27.658;85.326;2023-09-19T10:52:21;13.43;;;7.03;;
69203;SDS011;56317;27.658;85.326;2023-09-19T10:54:51;15.05;;;6.70;;
69203;SDS011;56317;27.658;85.326;2023-09-19T10:57:23;12.40;;;6.15;;
69203;SDS011;56317;27.658;85.326;2023-09-19T11:00:08;12.83;;;6.60;;
69203;SDS011;56317;27.658;85.326;2023-09-19T11:05:37;14.15;;;7.18;;
69203;SDS011;56317;27.658;85.326;2023-09-19T11:08:08;13.73;;;6.68;;
69203;SDS011;56317;27.658;85.326;2023-09-19T11:10:47;12.00;;;6.05;;
69203;SDS011;56317;27.658;85.326;2023-09-19T11:13:26;12.77;;;6.45;;
69203;SDS011;56317;27.658;85.326;2023-09-19T11:26:48;13.35;;;7.78;;
69203;SDS011;56317;27.658;85.326;2023-09-19T11:31:55;14.57;;;7.43;;
69203;SDS011;56317;27.658;85.326;2023-09-19T11:34:37;13.68;;;7.25;;
69203;SDS011;56317;27.658;85.326;2023-09-19T11:42:43;14.93;;;6.30;;
69203;SDS011;56317;27.658;85.326;2023-09-19T11:48:23;13.02;;;6.47;;
69203;SDS011;56317;27.658;85.326;2023-09-19T11:50:51;17.98;;;7.38;;
69203;SDS011;56317;27.658;85.326;2023-09-19T11:53:20;10.40;;;5.97;;
69203;SDS011;56317;27.658;85.326;2023-09-19T11:55:48;12.80;;;6.65;;
69203;SDS011;56317;27.658;85.326;2023-09-19T11:58:18;13.88;;;7.05;;
69203;SDS011;56317;27.658;85.326;2023-09-19T12:00:45;12.88;;;6.35;;
69203;SDS011;56317;27.658;85.326;2023-09-19T12:03:21;15.60;;;6.65;;
69203;SDS011;56317;27.658;85.326;2023-09-19T12:05:48;14.40;;;6.47;;
69203;SDS011;56317;27.658;85.326;2023-09-19T12:08:15;16.55;;;6.90;;
69203;SDS011;56317;27.658;85.326;2023-09-19T12:10:50;14.10;;;7.15;;
69203;SDS011;56317;27.658;85.326;2023-09-19T12:13:20;14.80;;;8.02;;
69203;SDS011;56317;27.658;85.326;2023-09-19T12:15:47;18.10;;;7.53;;
69203;SDS011;56317;27.658;85.326;2023-09-19T12:18:29;12.15;;;6.80;;
69203;SDS011;56317;27.658;85.326;2023-09-19T12:20:57;12.82;;;7.38;;
69203;SDS011;56317;27.658;85.326;2023-09-19T12:23:24;15.48;;;7.13;;
69203;SDS011;56317;27.658;85.326;2023-09-19T12:25:52;16.70;;;7.82;;
69203;SDS011;56317;27.658;85.326;2023-09-19T12:28:23;14.73;;;7.38;;
69203;SDS011;56317;27.658;85.326;2023-09-19T12:30:53;14.55;;;7.97;;
69203;SDS011;56317;27.658;85.326;2023-09-19T12:33:21;13.35;;;7.72;;
69203;SDS011;56317;27.658;85.326;2023-09-19T12:35:51;14.20;;;7.93;;
69203;SDS011;56317;27.658;85.326;2023-09-19T12:38:23;19.10;;;7.80;;
69203;SDS011;56317;27.658;85.326;2023-09-19T12:41:01;17.42;;;8.52;;
69203;SDS011;56317;27.658;85.326;2023-09-19T12:43:28;15.35;;;7.43;;
69203;SDS011;56317;27.658;85.326;2023-09-19T12:46:01;16.58;;;8.52;;
69203;SDS011;56317;27.658;85.326;2023-09-19T12:48:30;18.05;;;9.35;;
69203;SDS011;56317;27.658;85.326;2023-09-19T12:51:10;20.95;;;9.63;;
69203;SDS011;56317;27.658;85.326;2023-09-19T12:53:43;21.75;;;10.40;;
69203;SDS011;56317;27.658;85.326;2023-09-19T12:56:12;25.13;;;11.43;;
69203;SDS011;56317;27.658;85.326;2023-09-19T12:58:57;19.20;;;11.02;;
69203;SDS011;56317;27.658;85.326;2023-09-19T13:01:28;27.95;;;11.90;;
69203;SDS011;56317;27.658;85.326;2023-09-19T13:06:46;20.95;;;10.93;;
69203;SDS011;56317;27.658;85.326;2023-09-19T13:09:15;28.40;;;10.65;;
69203;SDS011;56317;27.658;85.326;2023-09-19T13:11:45;21.70;;;11.23;;
69203;SDS011;56317;27.658;85.326;2023-09-19T13:16:58;19.27;;;10.18;;
69203;SDS011;56317;27.658;85.326;2023-09-19T13:19:36;20.17;;;9.77;;
69203;SDS011;56317;27.658;85.326;2023-09-19T13:25:13;17.77;;;8.85;;
69203;SDS011;56317;27.658;85.326;2023-09-19T13:27:43;23.73;;;8.45;;
69203;SDS011;56317;27.658;85.326;2023-09-19T13:30:14;13.73;;;8.07;;
69203;SDS011;56317;27.658;85.326;2023-09-19T13:32:41;14.32;;;7.88;;
69203;SDS011;56317;27.658;85.326;2023-09-19T13:35:09;14.80;;;7.55;;
69203;SDS011;56317;27.658;85.326;2023-09-19T13:37:41;16.63;;;8.60;;
69203;SDS011;56317;27.658;85.326;2023-09-19T13:40:12;13.43;;;7.70;;
69203;SDS011;56317;27.658;85.326;2023-09-19T13:42:41;14.10;;;8.45;;
69203;SDS011;56317;27.658;85.326;2023-09-19T13:45:09;14.45;;;7.78;;
69203;SDS011;56317;27.658;85.326;2023-09-19T13:47:38;19.40;;;8.48;;
69203;SDS011;56317;27.658;85.326;2023-09-19T13:50:05;15.55;;;8.35;;
69203;SDS011;56317;27.658;85.326;2023-09-19T13:52:33;14.82;;;7.97;;
69203;SDS011;56317;27.658;85.326;2023-09-19T13:55:00;12.80;;;8.10;;
69203;SDS011;56317;27.658;85.326;2023-09-19T13:57:28;15.48;;;8.35;;
69203;SDS011;56317;27.658;85.326;2023-09-19T13:59:55;17.58;;;8.13;;
69203;SDS011;56317;27.658;85.326;2023-09-19T14:02:22;14.20;;;8.88;;
69203;SDS011;56317;27.658;85.326;2023-09-19T14:04:50;18.73;;;8.30;;
69203;SDS011;56317;27.658;85.326;2023-09-19T14:07:17;20.20;;;8.90;;
69203;SDS011;56317;27.658;85.326;2023-09-19T14:09:46;19.25;;;8.55;;
69203;SDS011;56317;27.658;85.326;2023-09-19T14:12:13;18.70;;;9.38;;
69203;SDS011;56317;27.658;85.326;2023-09-19T14:14:41;16.48;;;8.88;;
69203;SDS011;56317;27.658;85.326;2023-09-19T14:17:08;20.65;;;9.27;;
69203;SDS011;56317;27.658;85.326;2023-09-19T14:19:35;18.27;;;9.32;;
69203;SDS011;56317;27.658;85.326;2023-09-19T14:22:02;22.00;;;10.02;;
69203;SDS011;56317;27.658;85.326;2023-09-19T14:24:33;21.05;;;9.48;;
69203;SDS011;56317;27.658;85.326;2023-09-19T14:27:00;18.23;;;9.57;;
69203;SDS011;56317;27.658;85.326;2023-09-19T14:29:29;15.93;;;9.40;;
69203;SDS011;56317;27.658;85.326;2023-09-19T14:31:57;20.63;;;9.15;;
69203;SDS011;56317;27.658;85.326;2023-09-19T14:34:24;18.15;;;8.52;;
69203;SDS011;56317;27.658;85.326;2023-09-19T14:36:51;19.42;;;8.27;;
69203;SDS011;56317;27.658;85.326;2023-09-19T14:39:19;18.52;;;9.50;;
69203;SDS011;56317;27.658;85.326;2023-09-19T14:41:47;20.33;;;8.68;;
69203;SDS011;56317;27.658;85.326;2023-09-19T14:44:14;20.20;;;12.07;;
69203;SDS011;56317;27.658;85.326;2023-09-19T14:46:42;14.23;;;8.88;;
69203;SDS011;56317;27.658;85.326;2023-09-19T14:49:12;14.15;;;8.45;;
69203;SDS011;56317;27.658;85.326;2023-09-19T14:51:42;20.95;;;9.40;;
69203;SDS011;56317;27.658;85.326;2023-09-19T14:56:42;16.50;;;8.55;;
69203;SDS011;56317;27.658;85.326;2023-09-19T14:59:10;20.45;;;9.48;;
69203;SDS011;56317;27.658;85.326;2023-09-19T15:01:38;19.65;;;9.32;;
69203;SDS011;56317;27.658;85.326;2023-09-19T15:04:06;20.27;;;9.65;;
69203;SDS011;56317;27.658;85.326;2023-09-19T15:06:34;16.40;;;9.02;;
69203;SDS011;56317;27.658;85.326;2023-09-19T15:09:01;23.38;;;9.27;;
69203;SDS011;56317;27.658;85.326;2023-09-19T15:11:30;17.83;;;9.65;;
69203;SDS011;56317;27.658;85.326;2023-09-19T15:13:57;17.23;;;9.70;;
69203;SDS011;56317;27.658;85.326;2023-09-19T15:16:24;18.17;;;8.88;;
69203;SDS011;56317;27.658;85.326;2023-09-19T15:18:52;18.75;;;9.77;;
69203;SDS011;56317;27.658;85.326;2023-09-19T15:21:20;17.50;;;8.73;;
69203;SDS011;56317;27.658;85.326;2023-09-19T15:23:49;19.90;;;9.07;;
69203;SDS011;56317;27.658;85.326;2023-09-19T15:26:16;21.25;;;8.25;;
69203;SDS011;56317;27.658;85.326;2023-09-19T15:28:45;19.20;;;9.88;;
69203;SDS011;56317;27.658;85.326;2023-09-19T15:31:13;16.67;;;9.02;;
69203;SDS011;56317;27.658;85.326;2023-09-19T15:33:40;17.83;;;9.60;;
69203;SDS011;56317;27.658;85.326;2023-09-19T15:36:08;18.45;;;9.32;;
69203;SDS011;56317;27.658;85.326;2023-09-19T15:38:56;17.38;;;9.63;;
69203;SDS011;56317;27.658;85.326;2023-09-19T15:41:29;17.67;;;9.43;;
69203;SDS011;56317;27.658;85.326;2023-09-19T15:43:58;21.83;;;8.63;;
69203;SDS011;56317;27.658;85.326;2023-09-19T15:46:30;26.73;;;9.20;;
69203;SDS011;56317;27.658;85.326;2023-09-19T15:49:01;17.50;;;8.70;;
69203;SDS011;56317;27.658;85.326;2023-09-19T15:51:28;26.20;;;9.10;;
69203;SDS011;56317;27.658;85.326;2023-09-19T15:53:56;19.10;;;9.50;;
69203;SDS011;56317;27.658;85.326;2023-09-19T15:56:25;15.57;;;9.30;;
69203;SDS011;56317;27.658;85.326;2023-09-19T15:58:53;17.13;;;9.63;;
69203;SDS011;56317;27.658;85.326;2023-09-19T16:01:21;18.08;;;9.38;;
69203;SDS011;56317;27.658;85.326;2023-09-19T16:03:49;14.43;;;8.73;;